Terminal Aerodrome Forecast
Issued by NWS Goodland, KS

Home | Current Version | Previous Version | Text Only | Print | Product List | Glossary On
Versions: 1 2 3 4 5 6 7 8 9 10 11 12 13 14 15 16 17
000
FTUS43 KGLD 222322
TAFGLD
TAF
KGLD 222322Z 2300/2324 VRB04KT P6SM FEW060
     FM230400 18006KT P6SM SKC
      TEMPO 2308/2311 20012KT
     FM231300 20013KT P6SM FEW270
     FM231600 19022G32KT P6SM SCT250=

USA.gov is the U.S. government's official web portal to all federal, state and local government web resources and services.